Skillman, New Jersey
Current Conditions -  °F | °C
As of 2:53 PM on Sunday 23 Nov 2014 (Local Time) from KTTN Reporting Station
Clear Clear  
Wind Chill: 55°   Ceiling: Unl
Heat Index: 55°   Visibility: 9mi
Dew Point: 25°   Wind: 10mph
Humidity: 31%   Direction: 190°S
Pressure: 30.13"   Gusts: NA
Location:  40.42°N, 74.71°W
Report Text: KTTN 231953Z 19009KT 9SM CLR 13/M04 A3013 RMK AO2 SLP197 T01281039
Loading
Personal Weather Stations






























Interactive Weather Map New forecast layout! Learn more

10-Day Weather Forecast

Advertisements
Track Severe Weather on mobile